Time;durP1;ratioP1;P1;durP2;ratioP2;P2;SDS_P1;SDS_P2;PMS_P1;PMS_P2;Temp;Humidity;BMP_temperature;BMP_pressure;BME280_temperature;BME280_humidity;BME280_pressure;Samples;Min_cycle;Max_cycle;Signal;HPM_P1;HPM_P2
2022/06/07 00:00:41;;;;;;;8.00;5.15;;;;;;;;;;10497146;28;20025;-73
2022/06/07 00:05:43;;;;;;;15.38;5.35;;;;;;;;;;10496542;28;20024;-73
2022/06/07 00:10:47;;;;;;;12.02;5.25;;;;;;;;;;10523619;28;20032;-73
2022/06/07 00:15:47;;;;;;;8.35;5.13;;;;;;;;;;10514368;28;20512;-70
2022/06/07 00:20:47;;;;;;;6.28;5.13;;;;;;;;;;10513327;28;20060;-76
2022/06/07 00:25:50;;;;;;;8.00;4.77;;;;;;;;;;10514671;28;20031;-72
2022/06/07 00:30:51;;;;;;;11.35;4.97;;;;;;;;;;10514384;28;20024;-73
2022/06/07 00:35:51;;;;;;;14.50;6.70;;;;;;;;;;10514720;28;20493;-72
2022/06/07 00:40:51;;;;;;;7.35;5.25;;;;;;;;;;10514305;28;20028;-75
2022/06/07 00:45:52;;;;;;;10.43;6.45;;;;;;;;;;10531432;28;20536;-72
2022/06/07 00:50:54;;;;;;;8.07;5.78;;;;;;;;;;10530728;28;20538;-72
2022/06/07 00:55:55;;;;;;;8.15;5.20;;;;;;;;;;10512281;28;20024;-74
2022/06/07 01:00:56;;;;;;;9.07;5.50;;;;;;;;;;10513331;28;20032;-73
2022/06/07 01:10:43;;;;;;;8.57;5.80;;;;;;;;;;10512671;28;20046;-76
2022/06/07 01:11:16;;;;;;;10.45;5.90;;;;;;;;;;10558771;28;20019;-71
2022/06/07 01:16:17;;;;;;;15.10;8.80;;;;;;;;;;10532470;28;20469;-72
2022/06/07 01:21:22;;;;;;;9.68;6.57;;;;;;;;;;10512042;28;20056;-76
2022/06/07 01:26:22;;;;;;;20.15;10.15;;;;;;;;;;10512814;28;20401;-73
2022/06/07 01:31:22;;;;;;;12.70;7.95;;;;;;;;;;10528908;28;20020;-71
2022/06/07 01:36:22;;;;;;;15.95;9.30;;;;;;;;;;10511614;28;20027;-76
2022/06/07 01:46:41;;;;;;;;;;;;;;;;;;10528903;28;20028;-76
2022/06/07 01:51:41;;;;;;;34.38;11.95;;;;;;;;;;10510831;28;19904;-74
2022/06/07 01:56:42;;;;;;;17.80;10.43;;;;;;;;;;10511016;28;20063;-72
2022/06/07 02:01:43;;;;;;;28.23;12.57;;;;;;;;;;10510875;28;20103;-78
2022/06/07 02:06:43;;;;;;;23.58;11.95;;;;;;;;;;10510906;28;20286;-74
2022/06/07 02:11:44;;;;;;;21.67;9.55;;;;;;;;;;10510760;28;20024;-73
2022/06/07 02:16:44;;;;;;;16.47;8.93;;;;;;;;;;10510178;28;20119;-74
2022/06/07 02:21:44;;;;;;;17.67;9.20;;;;;;;;;;10527353;28;20548;-72
2022/06/07 02:26:52;;;;;;;18.30;9.07;;;;;;;;;;10504513;28;20024;-72
2022/06/07 02:31:55;;;;;;;14.60;7.72;;;;;;;;;;10527065;28;20020;-72
2022/06/07 02:36:59;;;;;;;11.75;7.22;;;;;;;;;;10509043;28;20107;-74
2022/06/07 02:42:01;;;;;;;16.23;7.03;;;;;;;;;;10526760;28;20067;-76
2022/06/07 02:47:01;;;;;;;13.70;6.30;;;;;;;;;;10526249;28;20768;-72
2022/06/07 02:52:02;;;;;;;12.07;6.70;;;;;;;;;;10526313;28;20016;-73
2022/06/07 02:57:02;;;;;;;22.07;7.03;;;;;;;;;;10508336;28;20028;-72
2022/06/07 03:02:03;;;;;;;14.90;6.38;;;;;;;;;;10508111;28;20073;-71
2022/06/07 03:07:04;;;;;;;11.52;5.78;;;;;;;;;;10508524;28;20035;-75
2022/06/07 03:12:05;;;;;;;9.80;6.32;;;;;;;;;;10507964;28;20554;-70
2022/06/07 03:17:06;;;;;;;9.85;5.22;;;;;;;;;;10495514;28;20020;-73
2022/06/07 03:22:07;;;;;;;14.18;5.55;;;;;;;;;;10517645;28;20056;-71
2022/06/07 03:27:07;;;;;;;10.23;5.00;;;;;;;;;;10517568;28;20030;-71
2022/06/07 03:32:08;;;;;;;9.05;4.53;;;;;;;;;;10535466;28;20027;-71
2022/06/07 03:37:08;;;;;;;7.60;5.50;;;;;;;;;;10536081;28;20383;-74
2022/06/07 03:42:09;;;;;;;10.63;5.23;;;;;;;;;;10517549;28;20404;-72
2022/06/07 03:47:09;;;;;;;8.80;5.15;;;;;;;;;;10516812;28;20621;-72
2022/06/07 03:52:09;;;;;;;9.90;5.28;;;;;;;;;;10534992;28;20024;-74
2022/06/07 03:57:10;;;;;;;10.63;6.70;;;;;;;;;;10517331;28;20796;-69
2022/06/07 04:02:11;;;;;;;13.48;6.72;;;;;;;;;;10517465;28;20093;-74
2022/06/07 04:12:30;;;;;;;21.35;9.15;;;;;;;;;;10533930;28;20054;-73
2022/06/07 04:17:30;;;;;;;15.48;7.57;;;;;;;;;;10515000;28;20523;-75
2022/06/07 04:22:30;;;;;;;13.48;6.35;;;;;;;;;;10515475;28;20576;-74
2022/06/07 04:27:31;;;;;;;10.05;6.10;;;;;;;;;;10513654;28;20016;-73
2022/06/07 04:32:31;;;;;;;10.02;6.57;;;;;;;;;;10532610;28;20040;-75
2022/06/07 04:37:32;;;;;;;9.75;6.70;;;;;;;;;;10515061;28;20379;-75
2022/06/07 04:42:32;;;;;;;15.35;7.45;;;;;;;;;;10513925;28;20024;-71
2022/06/07 04:47:33;;;;;;;9.52;5.93;;;;;;;;;;10527857;28;20117;-73
2022/06/07 04:52:33;;;;;;;19.17;8.35;;;;;;;;;;10510485;28;20238;-75
2022/06/07 04:57:33;;;;;;;8.82;6.03;;;;;;;;;;10510650;28;20107;-75
2022/06/07 05:02:35;;;;;;;7.05;4.65;;;;;;;;;;10531994;28;20395;-73
2022/06/07 05:07:37;;;;;;;15.77;5.15;;;;;;;;;;10513847;28;20376;-72
2022/06/07 05:12:37;;;;;;;8.45;4.78;;;;;;;;;;10512892;28;20074;-73
2022/06/07 05:17:38;;;;;;;7.80;5.72;;;;;;;;;;10530688;28;20117;-70
2022/06/07 05:22:38;;;;;;;11.02;6.05;;;;;;;;;;10530700;28;20038;-75
2022/06/07 05:27:41;;;;;;;8.95;5.35;;;;;;;;;;10529223;28;20028;-70
2022/06/07 05:32:42;;;;;;;8.95;5.22;;;;;;;;;;10512041;28;20078;-73
2022/06/07 05:37:42;;;;;;;10.40;5.93;;;;;;;;;;10512204;28;20498;-73
2022/06/07 05:42:42;;;;;;;13.43;7.20;;;;;;;;;;10512737;28;20054;-74
2022/06/07 05:47:42;;;;;;;11.65;5.38;;;;;;;;;;10512027;28;20328;-72
2022/06/07 05:52:42;;;;;;;13.48;6.55;;;;;;;;;;10511116;28;20039;-74
2022/06/07 05:57:49;;;;;;;10.45;6.95;;;;;;;;;;10511319;28;20043;-71
2022/06/07 06:02:49;;;;;;;19.38;8.25;;;;;;;;;;10529089;28;20031;-71
2022/06/07 06:13:08;;;;;;;17.65;10.80;;;;;;;;;;10529280;28;20397;-71
2022/06/07 06:18:08;;;;;;;17.20;12.00;;;;;;;;;;10510099;28;20040;-72
2022/06/07 06:23:08;;;;;;;25.23;11.82;;;;;;;;;;10510166;28;20024;-72
2022/06/07 06:28:09;;;;;;;17.38;8.88;;;;;;;;;;10528453;28;20016;-70
2022/06/07 06:33:09;;;;;;;14.40;8.40;;;;;;;;;;10526616;28;20431;-71
2022/06/07 06:38:09;;;;;;;13.60;8.20;;;;;;;;;;10527889;28;20081;-72
2022/06/07 06:43:09;;;;;;;13.35;9.00;;;;;;;;;;10527061;28;20020;-77
2022/06/07 06:48:11;;;;;;;14.23;8.47;;;;;;;;;;10509285;28;20023;-71
2022/06/07 06:53:11;;;;;;;17.23;7.03;;;;;;;;;;10508814;28;20290;-72
2022/06/07 06:58:11;;;;;;;13.05;7.20;;;;;;;;;;10509626;28;20115;-73
2022/06/07 07:03:12;;;;;;;12.45;6.90;;;;;;;;;;10525776;28;20082;-71
2022/06/07 07:08:12;;;;;;;11.05;6.90;;;;;;;;;;10518612;28;20034;-72
2022/06/07 07:13:12;;;;;;;11.80;7.10;;;;;;;;;;10510016;28;20450;-72
2022/06/07 07:18:13;;;;;;;16.52;7.15;;;;;;;;;;10509236;28;20044;-70
2022/06/07 07:23:13;;;;;;;14.20;6.88;;;;;;;;;;10509199;28;20024;-71
2022/06/07 07:28:14;;;;;;;12.27;6.97;;;;;;;;;;10525624;28;20512;-69
2022/06/07 07:33:14;;;;;;;15.82;6.47;;;;;;;;;;10508771;28;20081;-71
2022/06/07 07:38:14;;;;;;;12.23;7.30;;;;;;;;;;10525558;28;20051;-73
2022/06/07 07:43:14;;;;;;;12.20;5.30;;;;;;;;;;10508822;28;20016;-70
2022/06/07 07:48:16;;;;;;;7.72;4.03;;;;;;;;;;10526551;28;20028;-71
2022/06/07 07:53:18;;;;;;;11.88;4.75;;;;;;;;;;10507942;28;20107;-70
2022/06/07 07:58:20;;;;;;;7.18;5.20;;;;;;;;;;10508250;28;20012;-70
2022/06/07 08:03:20;;;;;;;6.30;4.15;;;;;;;;;;10511323;28;20081;-71
2022/06/07 08:08:20;;;;;;;4.47;2.63;;;;;;;;;;10532154;28;20543;-71
2022/06/07 08:13:21;;;;;;;5.75;2.88;;;;;;;;;;10534047;28;20079;-73
2022/06/07 08:18:24;;;;;;;7.05;2.83;;;;;;;;;;10533411;28;20411;-71
2022/06/07 08:23:24;;;;;;;4.25;2.90;;;;;;;;;;10515291;28;20512;-70
2022/06/07 08:28:25;;;;;;;6.30;2.90;;;;;;;;;;10514691;28;20024;-73
2022/06/07 08:38:49;;;;;;;4.72;2.80;;;;;;;;;;10490204;28;20032;-75
2022/06/07 08:43:49;;;;;;;5.35;2.47;;;;;;;;;;10531669;28;20032;-72
2022/06/07 08:48:49;;;;;;;3.95;2.20;;;;;;;;;;10514400;28;20034;-71
2022/06/07 08:53:51;;;;;;;1.98;1.58;;;;;;;;;;10514299;28;20016;-71
2022/06/07 08:58:52;;;;;;;2.97;1.77;;;;;;;;;;10514198;28;20024;-71
2022/06/07 09:03:52;;;;;;;7.05;2.40;;;;;;;;;;10514726;28;20031;-72
2022/06/07 09:08:55;;;;;;;2.00;1.80;;;;;;;;;;10535189;28;20466;-74
2022/06/07 09:13:55;;;;;;;2.45;1.33;;;;;;;;;;10513537;28;20453;-71
2022/06/07 09:18:55;;;;;;;7.45;1.92;;;;;;;;;;10513288;28;20056;-72
2022/06/07 09:23:57;;;;;;;4.43;1.85;;;;;;;;;;10530602;28;20054;-71
2022/06/07 09:29:05;;;;;;;4.00;1.40;;;;;;;;;;10512653;28;20024;-75
2022/06/07 09:34:07;;;;;;;1.92;1.52;;;;;;;;;;10495945;28;20028;-73
2022/06/07 09:39:07;;;;;;;2.08;1.70;;;;;;;;;;10495771;28;20020;-75
2022/06/07 09:44:23;;;;;;;1.75;1.65;;;;;;;;;;10529671;28;20030;-71
2022/06/07 09:49:25;;;;;;;5.45;1.95;;;;;;;;;;10528698;28;20532;-71
2022/06/07 09:54:25;;;;;;;2.33;1.60;;;;;;;;;;10511330;28;20024;-71
2022/06/07 09:59:32;;;;;;;2.15;1.95;;;;;;;;;;10511754;28;20024;-80
2022/06/07 10:04:35;;;;;;;2.47;1.80;;;;;;;;;;10527938;28;20027;-73
2022/06/07 10:09:47;;;;;;;2.28;1.90;;;;;;;;;;10511083;28;20024;-74
2022/06/07 10:14:50;;;;;;;1.98;1.83;;;;;;;;;;10528213;28;20473;-71
2022/06/07 10:20:17;;;;;;;2.30;2.00;;;;;;;;;;10529209;28;20113;-77
2022/06/07 10:25:29;;;;;;;6.93;2.28;;;;;;;;;;10510675;28;20027;-71
2022/06/07 10:30:29;;;;;;;4.55;1.95;;;;;;;;;;10510541;28;20054;-76
2022/06/07 10:35:39;;;;;;;2.47;1.95;;;;;;;;;;10527582;28;20158;-71
2022/06/07 10:40:52;;;;;;;3.22;1.88;;;;;;;;;;10527138;28;20024;-73
2022/06/07 10:45:59;;;;;;;2.60;2.38;;;;;;;;;;10526731;28;20447;-71
2022/06/07 10:52:20;;;;;;;3.47;1.85;;;;;;;;;;10510322;28;20024;-70
2022/06/07 10:56:36;;;;;;;9.75;3.03;;;;;;;;;;10527919;28;20038;-71
2022/06/07 11:01:41;;;;;;;4.70;2.78;;;;;;;;;;10509614;28;20522;-71
2022/06/07 11:12:08;;;;;;;3.25;2.92;;;;;;;;;;10527844;28;20028;-71
2022/06/07 11:17:12;;;;;;;2.60;2.40;;;;;;;;;;10509713;28;20027;-74
2022/06/07 11:22:15;;;;;;;5.38;2.50;;;;;;;;;;10525902;28;20056;-71
2022/06/07 11:27:17;;;;;;;3.47;2.80;;;;;;;;;;10493064;28;20031;-71
2022/06/07 11:32:36;;;;;;;2.65;2.30;;;;;;;;;;10509199;28;20016;-71
2022/06/07 11:37:36;;;;;;;8.02;2.70;;;;;;;;;;10527802;28;20028;-74
2022/06/07 11:42:37;;;;;;;3.72;2.63;;;;;;;;;;10517407;28;20097;-75
2022/06/07 11:47:46;;;;;;;3.78;2.40;;;;;;;;;;10535333;28;20375;-71
2022/06/07 11:52:54;;;;;;;2.80;2.50;;;;;;;;;;10517270;28;20033;-72
2022/06/07 11:58:04;;;;;;;4.45;2.30;;;;;;;;;;10503279;28;20071;-71
2022/06/07 12:03:08;;;;;;;3.22;2.15;;;;;;;;;;10527204;28;20036;-72
2022/06/07 12:08:21;;;;;;;4.60;2.22;;;;;;;;;;10514404;28;20036;-73
2022/06/07 12:18:49;;;;;;;9.05;2.80;;;;;;;;;;10515240;28;20052;-78
2022/06/07 12:23:51;;;;;;;5.15;2.60;;;;;;;;;;10502325;28;20028;-73
2022/06/07 12:28:53;;;;;;;3.38;2.47;;;;;;;;;;10503176;28;20020;-71
2022/06/07 12:33:56;;;;;;;3.75;2.00;;;;;;;;;;10505621;28;20373;-69
2022/06/07 12:38:58;;;;;;;9.65;2.50;;;;;;;;;;10507531;28;20028;-69
2022/06/07 12:43:59;;;;;;;4.55;2.95;;;;;;;;;;10505158;28;20028;-71
2022/06/07 12:48:59;;;;;;;5.97;2.88;;;;;;;;;;10505363;28;20032;-72
2022/06/07 12:54:03;;;;;;;6.07;2.87;;;;;;;;;;10502554;28;20633;-69
2022/06/07 12:59:29;;;;;;;3.95;2.60;;;;;;;;;;10495783;28;20031;-72
2022/06/07 13:04:35;;;;;;;5.03;2.55;;;;;;;;;;10516309;28;20164;-73
2022/06/07 13:09:36;;;;;;;4.72;2.30;;;;;;;;;;10503043;28;20097;-72
2022/06/07 13:14:36;;;;;;;2.55;2.35;;;;;;;;;;10496795;28;20396;-72
2022/06/07 13:19:40;;;;;;;2.90;2.30;;;;;;;;;;10499374;28;20056;-70
2022/06/07 13:24:46;;;;;;;3.88;2.10;;;;;;;;;;10497172;28;20052;-69
2022/06/07 13:29:46;;;;;;;5.57;2.35;;;;;;;;;;10520146;28;20055;-72
2022/06/07 13:34:52;;;;;;;3.67;1.90;;;;;;;;;;10503602;28;20031;-72
2022/06/07 13:40:02;;;;;;;9.85;2.75;;;;;;;;;;10511394;28;20035;-71
2022/06/07 13:45:11;;;;;;;2.13;1.92;;;;;;;;;;10529790;28;20028;-70
2022/06/07 13:55:40;;;;;;;5.22;2.58;;;;;;;;;;10530713;28;20036;-72
2022/06/07 14:00:41;;;;;;;5.10;2.83;;;;;;;;;;10529354;28;20563;-71
2022/06/07 14:05:41;;;;;;;4.50;2.20;;;;;;;;;;10510669;28;20024;-72
2022/06/07 14:10:42;;;;;;;4.22;2.50;;;;;;;;;;10527494;28;20020;-73
2022/06/07 14:15:44;;;;;;;2.47;1.88;;;;;;;;;;10510416;28;20016;-72
2022/06/07 14:20:47;;;;;;;2.65;1.75;;;;;;;;;;10510579;28;20112;-71
2022/06/07 14:25:47;;;;;;;5.35;2.33;;;;;;;;;;10494141;28;20087;-70
2022/06/07 14:30:49;;;;;;;2.23;1.90;;;;;;;;;;10509823;28;20359;-72
2022/06/07 14:35:50;;;;;;;4.30;2.35;;;;;;;;;;10510210;28;20261;-72
2022/06/07 14:40:51;;;;;;;2.72;2.30;;;;;;;;;;10509870;28;20020;-70
2022/06/07 14:45:56;;;;;;;5.72;2.13;;;;;;;;;;10509873;28;20023;-71
2022/06/07 14:50:56;;;;;;;7.20;2.60;;;;;;;;;;10527888;28;20021;-70
2022/06/07 14:55:56;;;;;;;6.20;3.00;;;;;;;;;;10509593;28;20016;-73
2022/06/07 15:00:57;;;;;;;6.82;2.88;;;;;;;;;;10509249;28;20016;-73
2022/06/07 15:05:57;;;;;;;3.00;2.22;;;;;;;;;;10509474;28;20024;-70
2022/06/07 15:10:57;;;;;;;3.50;2.40;;;;;;;;;;10525591;28;20363;-72
2022/06/07 15:16:06;;;;;;;7.00;2.80;;;;;;;;;;10526628;28;20043;-72
2022/06/07 15:21:12;;;;;;;7.70;2.42;;;;;;;;;;10508862;28;20102;-72
2022/06/07 15:26:14;;;;;;;7.47;2.38;;;;;;;;;;10508790;28;20016;-70
2022/06/07 15:31:15;;;;;;;2.53;2.08;;;;;;;;;;10492058;28;20020;-73
2022/06/07 15:36:16;;;;;;;3.85;2.25;;;;;;;;;;10526800;28;20488;-71
2022/06/07 15:46:36;;;;;;;3.08;2.35;;;;;;;;;;10511669;28;20497;-74
2022/06/07 15:51:36;;;;;;;2.67;2.10;;;;;;;;;;10508329;28;20020;-74
2022/06/07 15:56:36;;;;;;;3.85;2.45;;;;;;;;;;10508518;28;20024;-72
2022/06/07 16:01:39;;;;;;;3.20;2.42;;;;;;;;;;10525174;28;20016;-72
2022/06/07 16:06:39;;;;;;;3.45;2.33;;;;;;;;;;10527016;28;20788;-74
2022/06/07 16:11:40;;;;;;;2.88;2.00;;;;;;;;;;10507981;28;20066;-71
2022/06/07 16:16:41;;;;;;;2.92;2.20;;;;;;;;;;10524531;28;20530;-71
2022/06/07 16:21:42;;;;;;;2.88;2.00;;;;;;;;;;10508205;28;20105;-73
2022/06/07 16:26:42;;;;;;;3.13;1.90;;;;;;;;;;10513807;28;20020;-71
2022/06/07 16:37:01;;;;;;;3.95;1.80;;;;;;;;;;10534029;28;20024;-70
2022/06/07 16:42:01;;;;;;;4.03;1.83;;;;;;;;;;10533397;28;20107;-74
2022/06/07 16:47:02;;;;;;;4.53;1.90;;;;;;;;;;10514051;28;20020;-71
2022/06/07 16:52:04;;;;;;;2.85;1.52;;;;;;;;;;10514158;28;20104;-71
2022/06/07 16:57:07;;;;;;;4.68;1.92;;;;;;;;;;10514301;28;20052;-70
2022/06/07 17:02:07;;;;;;;4.60;2.40;;;;;;;;;;10497715;28;20023;-73
2022/06/07 17:07:07;;;;;;;3.15;2.30;;;;;;;;;;10530699;28;20036;-70
2022/06/07 17:12:08;;;;;;;6.70;2.20;;;;;;;;;;10513030;28;20452;-70
2022/06/07 17:17:08;;;;;;;3.77;2.93;;;;;;;;;;10509306;28;20110;-69
2022/06/07 17:22:09;;;;;;;7.30;3.00;;;;;;;;;;10514713;28;20298;-71
2022/06/07 17:27:10;;;;;;;3.28;2.22;;;;;;;;;;10519100;28;20034;-68
2022/06/07 17:32:10;;;;;;;7.60;2.90;;;;;;;;;;10521827;28;20393;-72
2022/06/07 17:37:10;;;;;;;3.58;2.28;;;;;;;;;;10526595;28;20297;-71
2022/06/07 17:42:10;;;;;;;7.20;2.00;;;;;;;;;;10511499;28;20035;-71
2022/06/07 17:47:11;;;;;;;6.27;2.60;;;;;;;;;;10503675;28;20085;-72
2022/06/07 17:52:11;;;;;;;2.70;1.90;;;;;;;;;;10496786;28;20024;-75
2022/06/07 17:57:13;;;;;;;3.60;2.30;;;;;;;;;;10497234;28;20016;-71
2022/06/07 18:02:14;;;;;;;8.73;2.42;;;;;;;;;;10495823;28;20523;-70
2022/06/07 18:07:16;;;;;;;5.93;2.35;;;;;;;;;;10499407;28;20081;-74
2022/06/07 18:12:16;;;;;;;4.97;2.50;;;;;;;;;;10492820;28;20537;-71
2022/06/07 18:17:16;;;;;;;6.43;2.97;;;;;;;;;;10512332;28;20042;-72
2022/06/07 18:22:20;;;;;;;5.40;2.80;;;;;;;;;;10495987;28;20560;-74
2022/06/07 18:27:21;;;;;;;3.88;2.75;;;;;;;;;;10499774;28;20040;-74
2022/06/07 18:32:22;;;;;;;5.80;2.70;;;;;;;;;;10495288;28;20474;-70
2022/06/07 18:37:23;;;;;;;4.10;2.97;;;;;;;;;;10500274;28;20028;-73
2022/06/07 18:42:23;;;;;;;4.70;2.80;;;;;;;;;;10513885;28;20028;-70
2022/06/07 18:47:26;;;;;;;3.60;2.60;;;;;;;;;;10498886;28;20420;-69
2022/06/07 18:52:27;;;;;;;6.97;2.65;;;;;;;;;;10496268;28;20016;-70
2022/06/07 18:57:27;;;;;;;4.70;2.58;;;;;;;;;;10495318;28;20414;-74
2022/06/07 19:02:28;;;;;;;9.57;2.45;;;;;;;;;;10496616;28;20028;-69
2022/06/07 19:07:28;;;;;;;6.03;3.10;;;;;;;;;;10498170;28;20107;-72
2022/06/07 19:12:31;;;;;;;7.53;3.17;;;;;;;;;;10493185;28;20023;-72
2022/06/07 19:17:32;;;;;;;4.63;3.35;;;;;;;;;;10496401;28;20039;-71
2022/06/07 19:22:32;;;;;;;5.65;2.88;;;;;;;;;;10505779;28;20048;-74
2022/06/07 19:27:32;;;;;;;6.63;2.67;;;;;;;;;;10507644;28;20526;-70
2022/06/07 19:32:33;;;;;;;4.32;2.50;;;;;;;;;;10507560;28;20036;-71
2022/06/07 19:37:33;;;;;;;5.70;2.40;;;;;;;;;;10524496;28;20024;-72
2022/06/07 19:42:33;;;;;;;5.47;3.03;;;;;;;;;;10524665;28;20027;-70
2022/06/07 19:47:33;;;;;;;3.40;2.55;;;;;;;;;;10524349;28;20380;-72
2022/06/07 19:52:37;;;;;;;6.27;3.10;;;;;;;;;;10544534;28;20425;-70
2022/06/07 19:57:38;;;;;;;24.77;8.80;;;;;;;;;;10507868;28;20036;-72
2022/06/07 20:02:39;;;;;;;7.15;3.83;;;;;;;;;;10514960;28;20016;-69
2022/06/07 20:07:39;;;;;;;4.65;3.00;;;;;;;;;;10515064;28;20409;-72
2022/06/07 20:12:40;;;;;;;7.57;3.22;;;;;;;;;;10515668;28;20020;-70
2022/06/07 20:17:40;;;;;;;4.65;3.22;;;;;;;;;;10531798;28;20024;-70
2022/06/07 20:22:41;;;;;;;4.10;3.15;;;;;;;;;;10514063;28;20461;-71
2022/06/07 20:27:41;;;;;;;5.47;2.90;;;;;;;;;;10514548;28;20025;-76
2022/06/07 20:32:41;;;;;;;4.90;3.40;;;;;;;;;;10513522;28;20473;-71
2022/06/07 20:37:42;;;;;;;5.70;2.95;;;;;;;;;;10514647;28;20504;-72
2022/06/07 20:42:42;;;;;;;4.15;3.60;;;;;;;;;;10530727;28;20024;-70
2022/06/07 20:47:42;;;;;;;3.90;3.03;;;;;;;;;;10511205;28;20031;-72
2022/06/07 20:52:43;;;;;;;3.58;2.63;;;;;;;;;;10513930;28;20468;-73
2022/06/07 20:57:43;;;;;;;4.57;3.20;;;;;;;;;;10512681;28;20024;-76
2022/06/07 21:02:43;;;;;;;3.28;2.60;;;;;;;;;;10531194;28;20438;-72
2022/06/07 21:07:44;;;;;;;9.43;3.40;;;;;;;;;;10511317;28;20458;-72
2022/06/07 21:12:45;;;;;;;3.30;2.63;;;;;;;;;;10529215;28;20023;-70
2022/06/07 21:17:46;;;;;;;3.00;2.70;;;;;;;;;;10511501;28;20466;-73
2022/06/07 21:22:46;;;;;;;3.58;2.70;;;;;;;;;;10511629;28;20032;-70
2022/06/07 21:27:46;;;;;;;4.90;2.70;;;;;;;;;;10510933;28;20024;-74
2022/06/07 21:32:46;;;;;;;4.07;2.67;;;;;;;;;;10509976;28;20085;-71
2022/06/07 21:37:47;;;;;;;6.82;3.13;;;;;;;;;;10511056;28;20081;-71
2022/06/07 21:42:48;;;;;;;4.00;3.22;;;;;;;;;;10510840;28;20020;-75
2022/06/07 21:47:48;;;;;;;9.05;3.33;;;;;;;;;;10511178;28;20023;-72
2022/06/07 21:52:48;;;;;;;5.82;3.05;;;;;;;;;;10529598;28;20081;-72
2022/06/07 21:57:49;;;;;;;5.07;2.97;;;;;;;;;;10511335;28;20405;-72
2022/06/07 22:02:49;;;;;;;3.55;2.95;;;;;;;;;;10528841;28;20106;-74
2022/06/07 22:07:51;;;;;;;8.03;3.90;;;;;;;;;;10528897;28;20406;-71
2022/06/07 22:12:52;;;;;;;4.60;3.30;;;;;;;;;;10510358;28;20038;-72
2022/06/07 22:17:53;;;;;;;7.93;3.90;;;;;;;;;;10493631;28;20100;-72
2022/06/07 22:22:53;;;;;;;4.47;3.38;;;;;;;;;;10510063;28;20034;-73
2022/06/07 22:27:53;;;;;;;4.63;3.40;;;;;;;;;;10492134;28;20032;-72
2022/06/07 22:32:54;;;;;;;7.43;3.47;;;;;;;;;;10509980;28;20263;-73
2022/06/07 22:37:54;;;;;;;4.80;3.80;;;;;;;;;;10509483;28;20494;-71
2022/06/07 22:42:54;;;;;;;4.22;3.45;;;;;;;;;;10510113;28;20138;-76
2022/06/07 22:47:54;;;;;;;4.05;3.50;;;;;;;;;;10509000;28;20467;-75
2022/06/07 22:53:00;;;;;;;4.47;3.60;;;;;;;;;;10508931;28;20405;-73
2022/06/07 22:58:02;;;;;;;7.07;3.90;;;;;;;;;;10539525;28;20028;-69
2022/06/07 23:03:06;;;;;;;5.32;3.35;;;;;;;;;;10509129;28;20444;-75
2022/06/07 23:08:08;;;;;;;7.15;3.95;;;;;;;;;;10508539;28;20074;-75
2022/06/07 23:13:08;;;;;;;5.75;3.42;;;;;;;;;;10508701;28;20012;-69
2022/06/07 23:18:08;;;;;;;7.78;3.42;;;;;;;;;;10508072;28;20040;-71
2022/06/07 23:23:09;;;;;;;10.52;4.15;;;;;;;;;;10508756;28;20028;-70
2022/06/07 23:28:09;;;;;;;6.67;3.53;;;;;;;;;;10508199;28;20024;-71
2022/06/07 23:33:09;;;;;;;4.75;3.30;;;;;;;;;;10528204;28;20078;-71
2022/06/07 23:38:09;;;;;;;4.60;3.45;;;;;;;;;;10517410;28;20027;-72
2022/06/07 23:43:11;;;;;;;6.10;3.92;;;;;;;;;;10534175;28;20119;-76
2022/06/07 23:48:13;;;;;;;16.33;4.22;;;;;;;;;;10516084;28;20095;-72
2022/06/07 23:53:16;;;;;;;6.05;3.92;;;;;;;;;;10515329;28;20107;-73
2022/06/07 23:58:18;;;;;;;4.45;3.67;;;;;;;;;;10516342;28;20107;-74
